sensor_id;sensor_type;location;lat;lon;timestamp;temperature;humidity
69162;DHT22;56269;51.738;21.652;2023-05-18T00:00:52;8.02;94.18
69162;DHT22;56269;51.738;21.652;2023-05-18T00:03:20;8.01;93.95
69162;DHT22;56269;51.738;21.652;2023-05-18T00:05:47;7.94;94.18
69162;DHT22;56269;51.738;21.652;2023-05-18T00:08:13;7.99;91.94
69162;DHT22;56269;51.738;21.652;2023-05-18T00:10:40;7.90;93.10
69162;DHT22;56269;51.738;21.652;2023-05-18T00:13:07;7.85;92.89
69162;DHT22;56269;51.738;21.652;2023-05-18T00:15:34;7.78;93.45
69162;DHT22;56269;51.738;21.652;2023-05-18T00:18:01;7.70;93.19
69162;DHT22;56269;51.738;21.652;2023-05-18T00:20:27;7.63;92.14
69162;DHT22;56269;51.738;21.652;2023-05-18T00:22:54;7.62;91.65
69162;DHT22;56269;51.738;21.652;2023-05-18T00:25:20;7.54;92.25
69162;DHT22;56269;51.738;21.652;2023-05-18T00:27:46;7.46;93.20
69162;DHT22;56269;51.738;21.652;2023-05-18T00:30:14;7.42;91.41
69162;DHT22;56269;51.738;21.652;2023-05-18T00:32:40;7.37;90.97
69162;DHT22;56269;51.738;21.652;2023-05-18T00:35:07;7.33;91.17
69162;DHT22;56269;51.738;21.652;2023-05-18T00:37:33;7.26;91.36
69162;DHT22;56269;51.738;21.652;2023-05-18T00:39:59;7.22;92.19
69162;DHT22;56269;51.738;21.652;2023-05-18T00:42:25;7.19;91.83
69162;DHT22;56269;51.738;21.652;2023-05-18T00:44:51;7.19;91.77
69162;DHT22;56269;51.738;21.652;2023-05-18T00:47:17;7.19;91.39
69162;DHT22;56269;51.738;21.652;2023-05-18T00:49:46;7.15;91.12
69162;DHT22;56269;51.738;21.652;2023-05-18T00:52:12;7.15;91.26
69162;DHT22;56269;51.738;21.652;2023-05-18T00:54:39;7.08;91.89
69162;DHT22;56269;51.738;21.652;2023-05-18T00:57:05;7.05;92.22
69162;DHT22;56269;51.738;21.652;2023-05-18T00:59:32;7.06;91.52
69162;DHT22;56269;51.738;21.652;2023-05-18T01:01:59;7.02;91.94
69162;DHT22;56269;51.738;21.652;2023-05-18T01:04:26;7.01;92.08
69162;DHT22;56269;51.738;21.652;2023-05-18T01:06:54;6.99;92.44
69162;DHT22;56269;51.738;21.652;2023-05-18T01:09:21;6.99;93.08
69162;DHT22;56269;51.738;21.652;2023-05-18T01:14:49;6.93;92.79
69162;DHT22;56269;51.738;21.652;2023-05-18T01:20:11;6.96;94.20
69162;DHT22;56269;51.738;21.652;2023-05-18T01:22:56;6.93;92.92
69162;DHT22;56269;51.738;21.652;2023-05-18T01:25:33;6.92;92.31
69162;DHT22;56269;51.738;21.652;2023-05-18T01:28:10;6.91;92.63
69162;DHT22;56269;51.738;21.652;2023-05-18T01:30:40;6.91;92.43
69162;DHT22;56269;51.738;21.652;2023-05-18T01:33:07;6.92;92.39
69162;DHT22;56269;51.738;21.652;2023-05-18T01:35:37;6.92;92.09
69162;DHT22;56269;51.738;21.652;2023-05-18T01:38:06;6.91;93.13
69162;DHT22;56269;51.738;21.652;2023-05-18T01:40:36;6.89;92.59
69162;DHT22;56269;51.738;21.652;2023-05-18T01:43:10;6.89;92.02
69162;DHT22;56269;51.738;21.652;2023-05-18T01:45:43;6.91;92.13
69162;DHT22;56269;51.738;21.652;2023-05-18T01:48:15;6.99;90.95
69162;DHT22;56269;51.738;21.652;2023-05-18T01:50:47;6.91;91.80
69162;DHT22;56269;51.738;21.652;2023-05-18T01:53:27;6.88;91.89
69162;DHT22;56269;51.738;21.652;2023-05-18T01:55:57;6.88;91.88
69162;DHT22;56269;51.738;21.652;2023-05-18T01:58:25;6.85;91.22
69162;DHT22;56269;51.738;21.652;2023-05-18T02:00:54;6.85;91.38
69162;DHT22;56269;51.738;21.652;2023-05-18T02:03:20;6.82;91.67
69162;DHT22;56269;51.738;21.652;2023-05-18T02:05:47;6.91;90.94
69162;DHT22;56269;51.738;21.652;2023-05-18T02:08:13;6.85;91.05
69162;DHT22;56269;51.738;21.652;2023-05-18T02:10:39;6.77;91.78
69162;DHT22;56269;51.738;21.652;2023-05-18T02:13:05;6.74;91.32
69162;DHT22;56269;51.738;21.652;2023-05-18T02:15:31;6.77;91.74
69162;DHT22;56269;51.738;21.652;2023-05-18T02:17:57;6.75;91.52
69162;DHT22;56269;51.738;21.652;2023-05-18T02:20:24;6.71;91.45
69162;DHT22;56269;51.738;21.652;2023-05-18T02:22:50;6.77;91.25
69162;DHT22;56269;51.738;21.652;2023-05-18T02:25:17;6.75;90.99
69162;DHT22;56269;51.738;21.652;2023-05-18T02:27:43;6.74;91.38
69162;DHT22;56269;51.738;21.652;2023-05-18T02:30:10;6.81;90.93
69162;DHT22;56269;51.738;21.652;2023-05-18T02:32:36;6.71;91.69
69162;DHT22;56269;51.738;21.652;2023-05-18T02:35:06;6.72;91.55
69162;DHT22;56269;51.738;21.652;2023-05-18T02:37:36;6.70;92.16
69162;DHT22;56269;51.738;21.652;2023-05-18T02:40:10;6.68;92.32
69162;DHT22;56269;51.738;21.652;2023-05-18T02:42:37;6.67;91.88
69162;DHT22;56269;51.738;21.652;2023-05-18T02:45:03;6.67;92.19
69162;DHT22;56269;51.738;21.652;2023-05-18T02:47:29;6.64;92.80
69162;DHT22;56269;51.738;21.652;2023-05-18T02:49:56;6.65;92.00
69162;DHT22;56269;51.738;21.652;2023-05-18T02:52:22;6.65;93.06
69162;DHT22;56269;51.738;21.652;2023-05-18T02:54:48;6.60;92.36
69162;DHT22;56269;51.738;21.652;2023-05-18T02:57:17;6.61;93.07
69162;DHT22;56269;51.738;21.652;2023-05-18T02:59:44;6.58;92.89
69162;DHT22;56269;51.738;21.652;2023-05-18T03:02:10;6.58;93.17
69162;DHT22;56269;51.738;21.652;2023-05-18T03:04:39;6.57;93.10
69162;DHT22;56269;51.738;21.652;2023-05-18T03:07:06;6.57;93.52
69162;DHT22;56269;51.738;21.652;2023-05-18T03:09:32;6.54;93.61
69162;DHT22;56269;51.738;21.652;2023-05-18T03:11:58;6.60;93.43
69162;DHT22;56269;51.738;21.652;2023-05-18T03:14:26;6.60;93.57
69162;DHT22;56269;51.738;21.652;2023-05-18T03:16:53;6.61;94.11
69162;DHT22;56269;51.738;21.652;2023-05-18T03:19:22;6.61;93.64
69162;DHT22;56269;51.738;21.652;2023-05-18T03:21:48;6.61;93.94
69162;DHT22;56269;51.738;21.652;2023-05-18T03:24:15;6.60;93.96
69162;DHT22;56269;51.738;21.652;2023-05-18T03:26:41;6.61;94.06
69162;DHT22;56269;51.738;21.652;2023-05-18T03:29:09;6.68;94.87
69162;DHT22;56269;51.738;21.652;2023-05-18T03:31:37;6.67;94.53
69162;DHT22;56269;51.738;21.652;2023-05-18T03:34:04;6.67;94.45
69162;DHT22;56269;51.738;21.652;2023-05-18T03:36:32;6.70;93.84
69162;DHT22;56269;51.738;21.652;2023-05-18T03:39:00;6.82;93.58
69162;DHT22;56269;51.738;21.652;2023-05-18T03:41:27;6.78;92.84
69162;DHT22;56269;51.738;21.652;2023-05-18T03:43:54;6.89;92.57
69162;DHT22;56269;51.738;21.652;2023-05-18T03:46:20;6.88;92.23
69162;DHT22;56269;51.738;21.652;2023-05-18T03:48:47;6.96;92.31
69162;DHT22;56269;51.738;21.652;2023-05-18T03:51:13;6.95;91.73
69162;DHT22;56269;51.738;21.652;2023-05-18T03:53:39;7.03;92.02
69162;DHT22;56269;51.738;21.652;2023-05-18T03:56:07;7.03;92.11
69162;DHT22;56269;51.738;21.652;2023-05-18T03:58:33;7.06;92.09
69162;DHT22;56269;51.738;21.652;2023-05-18T04:01:00;7.11;92.13
69162;DHT22;56269;51.738;21.652;2023-05-18T04:03:26;7.15;91.71
69162;DHT22;56269;51.738;21.652;2023-05-18T04:05:52;7.16;92.16
69162;DHT22;56269;51.738;21.652;2023-05-18T04:08:19;7.20;91.33
69162;DHT22;56269;51.738;21.652;2023-05-18T04:10:45;7.27;90.13
69162;DHT22;56269;51.738;21.652;2023-05-18T04:13:11;7.40;90.18
69162;DHT22;56269;51.738;21.652;2023-05-18T04:15:37;7.34;90.56
69162;DHT22;56269;51.738;21.652;2023-05-18T04:18:04;7.39;91.13
69162;DHT22;56269;51.738;21.652;2023-05-18T04:20:30;7.46;90.23
69162;DHT22;56269;51.738;21.652;2023-05-18T04:22:56;7.36;90.51
69162;DHT22;56269;51.738;21.652;2023-05-18T04:25:22;7.47;91.12
69162;DHT22;56269;51.738;21.652;2023-05-18T04:27:57;7.46;90.11
69162;DHT22;56269;51.738;21.652;2023-05-18T04:30:26;7.49;90.51
69162;DHT22;56269;51.738;21.652;2023-05-18T04:32:54;7.59;90.88
69162;DHT22;56269;51.738;21.652;2023-05-18T04:35:22;7.63;90.11
69162;DHT22;56269;51.738;21.652;2023-05-18T04:37:51;7.64;89.68
69162;DHT22;56269;51.738;21.652;2023-05-18T04:40:17;7.62;90.05
69162;DHT22;56269;51.738;21.652;2023-05-18T04:42:43;7.67;89.66
69162;DHT22;56269;51.738;21.652;2023-05-18T04:45:16;7.84;90.39
69162;DHT22;56269;51.738;21.652;2023-05-18T04:47:46;7.71;88.58
69162;DHT22;56269;51.738;21.652;2023-05-18T04:50:18;7.75;88.62
69162;DHT22;56269;51.738;21.652;2023-05-18T04:52:47;7.73;89.57
69162;DHT22;56269;51.738;21.652;2023-05-18T04:55:17;7.84;89.55
69162;DHT22;56269;51.738;21.652;2023-05-18T04:57:53;7.88;88.56
69162;DHT22;56269;51.738;21.652;2023-05-18T05:00:23;7.98;89.05
69162;DHT22;56269;51.738;21.652;2023-05-18T05:02:51;8.18;89.21
69162;DHT22;56269;51.738;21.652;2023-05-18T05:05:17;8.09;88.58
69162;DHT22;56269;51.738;21.652;2023-05-18T05:07:44;8.12;89.19
69162;DHT22;56269;51.738;21.652;2023-05-18T05:10:10;8.04;88.95
69162;DHT22;56269;51.738;21.652;2023-05-18T05:12:36;8.05;90.12
69162;DHT22;56269;51.738;21.652;2023-05-18T05:15:03;8.14;87.94
69162;DHT22;56269;51.738;21.652;2023-05-18T05:17:29;8.15;89.45
69162;DHT22;56269;51.738;21.652;2023-05-18T05:19:55;8.09;88.74
69162;DHT22;56269;51.738;21.652;2023-05-18T05:22:22;8.12;88.14
69162;DHT22;56269;51.738;21.652;2023-05-18T05:24:48;8.15;87.98
69162;DHT22;56269;51.738;21.652;2023-05-18T05:27:14;8.18;88.12
69162;DHT22;56269;51.738;21.652;2023-05-18T05:29:40;8.28;87.52
69162;DHT22;56269;51.738;21.652;2023-05-18T05:32:08;8.36;87.92
69162;DHT22;56269;51.738;21.652;2023-05-18T05:34:34;8.41;87.86
69162;DHT22;56269;51.738;21.652;2023-05-18T05:37:00;8.35;86.95
69162;DHT22;56269;51.738;21.652;2023-05-18T05:39:26;8.42;88.22
69162;DHT22;56269;51.738;21.652;2023-05-18T05:41:52;8.44;86.47
69162;DHT22;56269;51.738;21.652;2023-05-18T05:44:18;8.57;88.22
69162;DHT22;56269;51.738;21.652;2023-05-18T05:46:45;8.62;87.86
69162;DHT22;56269;51.738;21.652;2023-05-18T05:49:11;8.67;86.79
69162;DHT22;56269;51.738;21.652;2023-05-18T05:51:38;8.83;87.03
69162;DHT22;56269;51.738;21.652;2023-05-18T05:54:04;8.73;87.11
69162;DHT22;56269;51.738;21.652;2023-05-18T05:56:30;8.84;87.32
69162;DHT22;56269;51.738;21.652;2023-05-18T05:58:56;8.93;86.00
69162;DHT22;56269;51.738;21.652;2023-05-18T06:01:22;8.73;86.42
69162;DHT22;56269;51.738;21.652;2023-05-18T06:03:48;8.83;85.92
69162;DHT22;56269;51.738;21.652;2023-05-18T06:06:15;9.01;86.25
69162;DHT22;56269;51.738;21.652;2023-05-18T06:08:41;9.26;85.91
69162;DHT22;56269;51.738;21.652;2023-05-18T06:11:07;9.38;85.45
69162;DHT22;56269;51.738;21.652;2023-05-18T06:13:33;9.21;85.24
69162;DHT22;56269;51.738;21.652;2023-05-18T06:15:59;9.23;86.02
69162;DHT22;56269;51.738;21.652;2023-05-18T06:18:25;9.37;84.62
69162;DHT22;56269;51.738;21.652;2023-05-18T06:20:51;9.31;85.00
69162;DHT22;56269;51.738;21.652;2023-05-18T06:23:20;9.20;86.46
69162;DHT22;56269;51.738;21.652;2023-05-18T06:25:49;9.28;85.59
69162;DHT22;56269;51.738;21.652;2023-05-18T06:28:15;9.44;85.00
69162;DHT22;56269;51.738;21.652;2023-05-18T06:30:41;9.32;85.67
69162;DHT22;56269;51.738;21.652;2023-05-18T06:33:07;9.34;85.15
69162;DHT22;56269;51.738;21.652;2023-05-18T06:35:33;9.39;84.31
69162;DHT22;56269;51.738;21.652;2023-05-18T06:37:59;9.77;85.17
69162;DHT22;56269;51.738;21.652;2023-05-18T06:40:26;9.69;84.23
69162;DHT22;56269;51.738;21.652;2023-05-18T06:42:52;9.67;84.86
69162;DHT22;56269;51.738;21.652;2023-05-18T06:45:18;9.86;84.71
69162;DHT22;56269;51.738;21.652;2023-05-18T06:47:45;9.98;84.80
69162;DHT22;56269;51.738;21.652;2023-05-18T06:50:11;9.96;81.97
69162;DHT22;56269;51.738;21.652;2023-05-18T06:52:37;10.23;82.66
69162;DHT22;56269;51.738;21.652;2023-05-18T06:55:04;10.19;82.56
69162;DHT22;56269;51.738;21.652;2023-05-18T06:57:32;9.71;81.94
69162;DHT22;56269;51.738;21.652;2023-05-18T06:59:58;9.89;82.80
69162;DHT22;56269;51.738;21.652;2023-05-18T07:02:25;10.10;81.79
69162;DHT22;56269;51.738;21.652;2023-05-18T07:04:51;10.17;84.45
69162;DHT22;56269;51.738;21.652;2023-05-18T07:07:17;9.71;81.28
69162;DHT22;56269;51.738;21.652;2023-05-18T07:09:44;9.92;82.21
69162;DHT22;56269;51.738;21.652;2023-05-18T07:12:11;9.85;80.83
69162;DHT22;56269;51.738;21.652;2023-05-18T07:14:37;9.74;80.99
69162;DHT22;56269;51.738;21.652;2023-05-18T07:17:03;9.85;81.36
69162;DHT22;56269;51.738;21.652;2023-05-18T07:19:32;10.06;81.73
69162;DHT22;56269;51.738;21.652;2023-05-18T07:21:59;10.17;81.39
69162;DHT22;56269;51.738;21.652;2023-05-18T07:24:26;10.37;82.84
69162;DHT22;56269;51.738;21.652;2023-05-18T07:26:52;10.23;80.63
69162;DHT22;56269;51.738;21.652;2023-05-18T07:29:18;10.30;80.67
69162;DHT22;56269;51.738;21.652;2023-05-18T07:31:44;10.23;81.36
69162;DHT22;56269;51.738;21.652;2023-05-18T07:34:11;10.30;80.74
69162;DHT22;56269;51.738;21.652;2023-05-18T07:36:37;10.06;81.43
69162;DHT22;56269;51.738;21.652;2023-05-18T07:39:04;10.08;80.25
69162;DHT22;56269;51.738;21.652;2023-05-18T07:41:30;9.95;81.28
69162;DHT22;56269;51.738;21.652;2023-05-18T07:43:56;9.85;80.85
69162;DHT22;56269;51.738;21.652;2023-05-18T07:46:22;9.88;81.26
69162;DHT22;56269;51.738;21.652;2023-05-18T07:48:49;10.12;80.60
69162;DHT22;56269;51.738;21.652;2023-05-18T07:51:15;10.23;80.52
69162;DHT22;56269;51.738;21.652;2023-05-18T07:53:41;10.12;81.50
69162;DHT22;56269;51.738;21.652;2023-05-18T07:56:07;9.96;82.02
69162;DHT22;56269;51.738;21.652;2023-05-18T07:58:34;9.85;81.88
69162;DHT22;56269;51.738;21.652;2023-05-18T08:01:01;9.96;82.53
69162;DHT22;56269;51.738;21.652;2023-05-18T08:03:27;10.16;82.52
69162;DHT22;56269;51.738;21.652;2023-05-18T08:05:53;10.50;82.51
69162;DHT22;56269;51.738;21.652;2023-05-18T08:08:20;10.26;80.99
69162;DHT22;56269;51.738;21.652;2023-05-18T08:10:46;10.16;81.11
69162;DHT22;56269;51.738;21.652;2023-05-18T08:13:12;10.39;81.50
69162;DHT22;56269;51.738;21.652;2023-05-18T08:15:39;10.29;82.12
69162;DHT22;56269;51.738;21.652;2023-05-18T08:18:08;10.51;81.23
69162;DHT22;56269;51.738;21.652;2023-05-18T08:20:34;10.39;81.34
69162;DHT22;56269;51.738;21.652;2023-05-18T08:23:01;10.43;80.88
69162;DHT22;56269;51.738;21.652;2023-05-18T08:25:26;10.67;82.10
69162;DHT22;56269;51.738;21.652;2023-05-18T08:27:53;10.49;81.64
69162;DHT22;56269;51.738;21.652;2023-05-18T08:30:19;10.63;82.49
69162;DHT22;56269;51.738;21.652;2023-05-18T08:32:47;10.50;83.05
69162;DHT22;56269;51.738;21.652;2023-05-18T08:35:13;10.13;80.91
69162;DHT22;56269;51.738;21.652;2023-05-18T08:37:39;10.08;81.91
69162;DHT22;56269;51.738;21.652;2023-05-18T08:40:06;10.54;83.33
69162;DHT22;56269;51.738;21.652;2023-05-18T08:42:41;10.74;81.72
69162;DHT22;56269;51.738;21.652;2023-05-18T08:48:04;10.74;82.56
69162;DHT22;56269;51.738;21.652;2023-05-18T08:50:31;10.36;81.48
69162;DHT22;56269;51.738;21.652;2023-05-18T08:53:04;10.43;81.87
69162;DHT22;56269;51.738;21.652;2023-05-18T08:55:31;10.51;82.02
69162;DHT22;56269;51.738;21.652;2023-05-18T08:58:03;10.56;82.17
69162;DHT22;56269;51.738;21.652;2023-05-18T09:00:31;10.88;81.04
69162;DHT22;56269;51.738;21.652;2023-05-18T09:02:58;10.56;80.80
69162;DHT22;56269;51.738;21.652;2023-05-18T09:05:24;10.91;80.45
69162;DHT22;56269;51.738;21.652;2023-05-18T09:07:51;10.94;80.22
69162;DHT22;56269;51.738;21.652;2023-05-18T09:10:20;11.01;80.23
69162;DHT22;56269;51.738;21.652;2023-05-18T09:12:48;11.32;80.59
69162;DHT22;56269;51.738;21.652;2023-05-18T09:15:16;11.22;79.33
69162;DHT22;56269;51.738;21.652;2023-05-18T09:17:45;10.88;81.14
69162;DHT22;56269;51.738;21.652;2023-05-18T09:20:11;10.92;81.53
69162;DHT22;56269;51.738;21.652;2023-05-18T09:22:38;11.04;81.52
69162;DHT22;56269;51.738;21.652;2023-05-18T09:25:08;10.97;81.70
69162;DHT22;56269;51.738;21.652;2023-05-18T09:27:36;10.87;82.29
69162;DHT22;56269;51.738;21.652;2023-05-18T09:30:03;10.71;82.93
69162;DHT22;56269;51.738;21.652;2023-05-18T09:32:33;10.82;81.60
69162;DHT22;56269;51.738;21.652;2023-05-18T09:35:04;10.61;81.09
69162;DHT22;56269;51.738;21.652;2023-05-18T09:37:31;10.95;80.81
69162;DHT22;56269;51.738;21.652;2023-05-18T09:40:02;10.59;81.15
69162;DHT22;56269;51.738;21.652;2023-05-18T09:42:42;10.67;81.90
69162;DHT22;56269;51.738;21.652;2023-05-18T09:45:19;10.80;81.73
69162;DHT22;56269;51.738;21.652;2023-05-18T09:47:52;10.68;81.33
69162;DHT22;56269;51.738;21.652;2023-05-18T09:50:22;10.80;81.61
69162;DHT22;56269;51.738;21.652;2023-05-18T09:52:49;10.90;82.37
69162;DHT22;56269;51.738;21.652;2023-05-18T09:55:18;10.95;81.28
69162;DHT22;56269;51.738;21.652;2023-05-18T09:57:47;11.02;80.90
69162;DHT22;56269;51.738;21.652;2023-05-18T10:00:14;11.02;81.54
69162;DHT22;56269;51.738;21.652;2023-05-18T10:02:44;11.11;81.14
69162;DHT22;56269;51.738;21.652;2023-05-18T10:05:24;11.39;80.77
69162;DHT22;56269;51.738;21.652;2023-05-18T10:07:59;11.86;79.79
69162;DHT22;56269;51.738;21.652;2023-05-18T10:10:27;11.84;79.59
69162;DHT22;56269;51.738;21.652;2023-05-18T10:12:55;11.83;79.36
69162;DHT22;56269;51.738;21.652;2023-05-18T10:15:23;11.63;78.53
69162;DHT22;56269;51.738;21.652;2023-05-18T10:17:56;11.63;79.60
69162;DHT22;56269;51.738;21.652;2023-05-18T10:20:24;11.66;79.80
69162;DHT22;56269;51.738;21.652;2023-05-18T10:22:54;11.61;78.38
69162;DHT22;56269;51.738;21.652;2023-05-18T10:25:22;11.66;77.19
69162;DHT22;56269;51.738;21.652;2023-05-18T10:28:04;11.38;77.80
69162;DHT22;56269;51.738;21.652;2023-05-18T10:30:32;11.76;78.60
69162;DHT22;56269;51.738;21.652;2023-05-18T10:33:00;12.21;77.00
69162;DHT22;56269;51.738;21.652;2023-05-18T10:35:27;12.82;76.02
69162;DHT22;56269;51.738;21.652;2023-05-18T10:37:54;12.93;76.35
69162;DHT22;56269;51.738;21.652;2023-05-18T10:40:23;12.75;75.54
69162;DHT22;56269;51.738;21.652;2023-05-18T10:42:51;12.49;77.05
69162;DHT22;56269;51.738;21.652;2023-05-18T10:45:18;12.38;76.08
69162;DHT22;56269;51.738;21.652;2023-05-18T10:47:46;12.38;77.25
69162;DHT22;56269;51.738;21.652;2023-05-18T10:50:13;12.58;76.34
69162;DHT22;56269;51.738;21.652;2023-05-18T10:52:40;12.72;76.69
69162;DHT22;56269;51.738;21.652;2023-05-18T10:55:07;12.38;74.96
69162;DHT22;56269;51.738;21.652;2023-05-18T10:57:37;12.10;75.17
69162;DHT22;56269;51.738;21.652;2023-05-18T11:00:06;12.10;76.39
69162;DHT22;56269;51.738;21.652;2023-05-18T11:02:38;12.27;78.22
69162;DHT22;56269;51.738;21.652;2023-05-18T11:05:07;12.65;76.47
69162;DHT22;56269;51.738;21.652;2023-05-18T11:07:35;13.16;75.28
69162;DHT22;56269;51.738;21.652;2023-05-18T11:10:02;12.95;74.53
69162;DHT22;56269;51.738;21.652;2023-05-18T11:12:35;12.33;74.75
69162;DHT22;56269;51.738;21.652;2023-05-18T11:15:03;12.51;75.77
69162;DHT22;56269;51.738;21.652;2023-05-18T11:17:30;12.65;75.94
69162;DHT22;56269;51.738;21.652;2023-05-18T11:22:46;12.66;76.20
69162;DHT22;56269;51.738;21.652;2023-05-18T11:27:56;12.33;76.73
69162;DHT22;56269;51.738;21.652;2023-05-18T11:33:21;12.42;76.48
69162;DHT22;56269;51.738;21.652;2023-05-18T11:36:08;12.34;77.16
69162;DHT22;56269;51.738;21.652;2023-05-18T11:38:53;12.01;76.53
69162;DHT22;56269;51.738;21.652;2023-05-18T11:46:41;12.14;78.04
69162;DHT22;56269;51.738;21.652;2023-05-18T11:49:17;12.13;78.68
69162;DHT22;56269;51.738;21.652;2023-05-18T11:52:20;12.16;78.54
69162;DHT22;56269;51.738;21.652;2023-05-18T11:54:59;12.46;78.16
69162;DHT22;56269;51.738;21.652;2023-05-18T12:00:04;12.35;78.78
69162;DHT22;56269;51.738;21.652;2023-05-18T12:02:33;12.27;78.68
69162;DHT22;56269;51.738;21.652;2023-05-18T12:05:00;12.13;78.29
69162;DHT22;56269;51.738;21.652;2023-05-18T12:07:28;11.97;78.30
69162;DHT22;56269;51.738;21.652;2023-05-18T12:09:58;11.84;77.34
69162;DHT22;56269;51.738;21.652;2023-05-18T12:12:26;11.87;78.02
69162;DHT22;56269;51.738;21.652;2023-05-18T12:14:54;11.83;78.85
69162;DHT22;56269;51.738;21.652;2023-05-18T12:17:20;11.87;79.40
69162;DHT22;56269;51.738;21.652;2023-05-18T12:19:48;11.82;79.82
69162;DHT22;56269;51.738;21.652;2023-05-18T12:22:15;11.79;79.89
69162;DHT22;56269;51.738;21.652;2023-05-18T12:24:42;11.82;78.87
69162;DHT22;56269;51.738;21.652;2023-05-18T12:27:10;11.89;80.03
69162;DHT22;56269;51.738;21.652;2023-05-18T12:29:38;11.76;79.32
69162;DHT22;56269;51.738;21.652;2023-05-18T12:32:07;11.89;80.84
69162;DHT22;56269;51.738;21.652;2023-05-18T12:34:34;11.79;79.21
69162;DHT22;56269;51.738;21.652;2023-05-18T12:37:02;11.67;80.32
69162;DHT22;56269;51.738;21.652;2023-05-18T12:39:29;11.63;79.14
69162;DHT22;56269;51.738;21.652;2023-05-18T12:42:12;11.73;80.09
69162;DHT22;56269;51.738;21.652;2023-05-18T12:44:41;11.82;80.08
69162;DHT22;56269;51.738;21.652;2023-05-18T12:47:13;11.74;80.92
69162;DHT22;56269;51.738;21.652;2023-05-18T12:49:42;11.63;80.83
69162;DHT22;56269;51.738;21.652;2023-05-18T12:52:13;11.72;81.11
69162;DHT22;56269;51.738;21.652;2023-05-18T12:54:50;11.47;80.25
69162;DHT22;56269;51.738;21.652;2023-05-18T12:57:23;11.66;80.38
69162;DHT22;56269;51.738;21.652;2023-05-18T12:59:53;11.70;80.05
69162;DHT22;56269;51.738;21.652;2023-05-18T13:05:10;11.87;80.48
69162;DHT22;56269;51.738;21.652;2023-05-18T13:07:41;11.76;81.18
69162;DHT22;56269;51.738;21.652;2023-05-18T13:10:09;11.87;80.05
69162;DHT22;56269;51.738;21.652;2023-05-18T13:12:49;11.79;80.62
69162;DHT22;56269;51.738;21.652;2023-05-18T13:15:20;11.90;80.05
69162;DHT22;56269;51.738;21.652;2023-05-18T13:20:43;11.90;81.94
69162;DHT22;56269;51.738;21.652;2023-05-18T13:23:13;11.91;80.66
69162;DHT22;56269;51.738;21.652;2023-05-18T13:25:40;11.91;80.53
69162;DHT22;56269;51.738;21.652;2023-05-18T13:28:08;11.72;82.38
69162;DHT22;56269;51.738;21.652;2023-05-18T13:30:38;11.56;82.45
69162;DHT22;56269;51.738;21.652;2023-05-18T13:33:05;11.45;83.41
69162;DHT22;56269;51.738;21.652;2023-05-18T13:35:37;11.61;84.88
69162;DHT22;56269;51.738;21.652;2023-05-18T13:38:03;11.61;84.42
69162;DHT22;56269;51.738;21.652;2023-05-18T13:40:29;11.56;85.53
69162;DHT22;56269;51.738;21.652;2023-05-18T13:42:56;11.52;85.35
69162;DHT22;56269;51.738;21.652;2023-05-18T13:45:22;11.55;84.69
69162;DHT22;56269;51.738;21.652;2023-05-18T13:47:48;11.43;85.15
69162;DHT22;56269;51.738;21.652;2023-05-18T13:50:21;11.59;85.65
69162;DHT22;56269;51.738;21.652;2023-05-18T13:52:48;11.76;84.47
69162;DHT22;56269;51.738;21.652;2023-05-18T13:55:14;11.73;83.19
69162;DHT22;56269;51.738;21.652;2023-05-18T13:57:40;11.89;83.75
69162;DHT22;56269;51.738;21.652;2023-05-18T14:00:07;11.72;84.75
69162;DHT22;56269;51.738;21.652;2023-05-18T14:02:45;11.79;84.61
69162;DHT22;56269;51.738;21.652;2023-05-18T14:05:12;11.46;84.44
69162;DHT22;56269;51.738;21.652;2023-05-18T14:07:40;11.49;85.24
69162;DHT22;56269;51.738;21.652;2023-05-18T14:10:08;11.38;85.58
69162;DHT22;56269;51.738;21.652;2023-05-18T14:12:34;11.38;84.32
69162;DHT22;56269;51.738;21.652;2023-05-18T14:15:01;11.43;85.67
69162;DHT22;56269;51.738;21.652;2023-05-18T14:17:27;11.42;85.35
69162;DHT22;56269;51.738;21.652;2023-05-18T14:19:57;11.23;85.85
69162;DHT22;56269;51.738;21.652;2023-05-18T14:22:24;11.40;86.17
69162;DHT22;56269;51.738;21.652;2023-05-18T14:24:55;11.39;86.32
69162;DHT22;56269;51.738;21.652;2023-05-18T14:27:22;11.35;85.45
69162;DHT22;56269;51.738;21.652;2023-05-18T14:29:49;11.35;86.25
69162;DHT22;56269;51.738;21.652;2023-05-18T14:32:16;11.40;85.53
69162;DHT22;56269;51.738;21.652;2023-05-18T14:34:42;11.49;85.17
69162;DHT22;56269;51.738;21.652;2023-05-18T14:37:08;11.45;84.92
69162;DHT22;56269;51.738;21.652;2023-05-18T14:39:35;11.52;86.11
69162;DHT22;56269;51.738;21.652;2023-05-18T14:42:01;11.43;85.10
69162;DHT22;56269;51.738;21.652;2023-05-18T14:44:27;11.40;85.32
69162;DHT22;56269;51.738;21.652;2023-05-18T14:46:53;11.46;85.45
69162;DHT22;56269;51.738;21.652;2023-05-18T14:49:19;11.39;84.96
69162;DHT22;56269;51.738;21.652;2023-05-18T14:51:45;11.39;84.30
69162;DHT22;56269;51.738;21.652;2023-05-18T14:54:12;11.33;84.97
69162;DHT22;56269;51.738;21.652;2023-05-18T14:56:38;11.47;85.57
69162;DHT22;56269;51.738;21.652;2023-05-18T14:59:05;11.38;85.01
69162;DHT22;56269;51.738;21.652;2023-05-18T15:01:31;11.39;84.36
69162;DHT22;56269;51.738;21.652;2023-05-18T15:03:58;11.33;84.11
69162;DHT22;56269;51.738;21.652;2023-05-18T15:06:24;11.36;84.06
69162;DHT22;56269;51.738;21.652;2023-05-18T15:08:51;11.46;84.56
69162;DHT22;56269;51.738;21.652;2023-05-18T15:11:17;11.36;84.18
69162;DHT22;56269;51.738;21.652;2023-05-18T15:13:45;11.45;84.20
69162;DHT22;56269;51.738;21.652;2023-05-18T15:16:12;11.36;84.06
69162;DHT22;56269;51.738;21.652;2023-05-18T15:18:39;11.36;84.68
69162;DHT22;56269;51.738;21.652;2023-05-18T15:21:05;11.31;84.09
69162;DHT22;56269;51.738;21.652;2023-05-18T15:23:33;11.28;84.17
69162;DHT22;56269;51.738;21.652;2023-05-18T15:26:00;11.31;84.99
69162;DHT22;56269;51.738;21.652;2023-05-18T15:28:29;11.28;83.62
69162;DHT22;56269;51.738;21.652;2023-05-18T15:30:55;11.23;84.58
69162;DHT22;56269;51.738;21.652;2023-05-18T15:33:22;11.28;83.35
69162;DHT22;56269;51.738;21.652;2023-05-18T15:35:48;11.21;83.96
69162;DHT22;56269;51.738;21.652;2023-05-18T15:38:14;11.21;84.55
69162;DHT22;56269;51.738;21.652;2023-05-18T15:40:41;11.14;86.47
69162;DHT22;56269;51.738;21.652;2023-05-18T15:43:11;11.15;85.09
69162;DHT22;56269;51.738;21.652;2023-05-18T15:45:37;11.11;85.25
69162;DHT22;56269;51.738;21.652;2023-05-18T15:48:04;11.10;85.00
69162;DHT22;56269;51.738;21.652;2023-05-18T15:50:30;11.10;85.41
69162;DHT22;56269;51.738;21.652;2023-05-18T15:52:57;11.07;84.69
69162;DHT22;56269;51.738;21.652;2023-05-18T15:55:23;11.07;85.83
69162;DHT22;56269;51.738;21.652;2023-05-18T15:57:49;11.05;86.24